createdAt,value
2019-06-08T00:01:57.061Z,20.40
2019-06-08T00:04:29.532Z,20.37
2019-06-08T00:07:02.014Z,20.09
2019-06-08T00:09:34.478Z,20.05
2019-06-08T00:12:06.957Z,20.04
2019-06-08T00:14:39.536Z,20.03
2019-06-08T00:17:27.384Z,20.02
2019-06-08T00:19:46.119Z,19.98
2019-06-08T00:22:19.772Z,19.87
2019-06-08T00:24:52.193Z,19.82
2019-06-08T00:27:24.652Z,19.66
2019-06-08T00:29:56.834Z,19.65
2019-06-08T00:32:29.104Z,19.58
2019-06-08T00:35:01.382Z,19.60
2019-06-08T00:37:33.648Z,19.63
2019-06-08T00:40:09.495Z,19.63
2019-06-08T00:42:41.524Z,19.55
2019-06-08T00:45:15.279Z,19.53
2019-06-08T00:47:48.370Z,19.52
2019-06-08T00:50:21.074Z,19.46
2019-06-08T00:52:53.509Z,19.44
2019-06-08T00:55:26.134Z,19.41
2019-06-08T00:57:58.253Z,19.41
2019-06-08T01:00:30.800Z,19.38
2019-06-08T01:03:03.505Z,19.41
2019-06-08T01:05:35.777Z,19.49
2019-06-08T01:08:08.471Z,19.48
2019-06-08T01:10:40.932Z,19.41
2019-06-08T01:13:13.317Z,19.52
2019-06-08T01:15:45.573Z,19.52
2019-06-08T01:18:20.692Z,19.57
2019-06-08T01:20:51.955Z,19.52
2019-06-08T01:23:24.128Z,19.52
2019-06-08T01:25:56.285Z,19.39
2019-06-08T01:28:28.575Z,19.40
2019-06-08T01:31:00.828Z,19.42
2019-06-08T01:33:33.202Z,19.47
2019-06-08T01:36:06.899Z,19.38
2019-06-08T01:38:39.270Z,19.30
2019-06-08T01:41:11.651Z,19.13
2019-06-08T01:43:44.118Z,19.03
2019-06-08T01:46:16.599Z,19.11
2019-06-08T01:48:48.763Z,19.03
2019-06-08T01:51:22.443Z,19.09
2019-06-08T01:53:55.124Z,19.11
2019-06-08T01:56:27.409Z,19.07
2019-06-08T01:58:59.808Z,19.13
2019-06-08T02:01:32.156Z,19.16
2019-06-08T02:04:05.122Z,19.15
2019-06-08T02:06:37.355Z,19.18
2019-06-08T02:09:10.813Z,19.19
2019-06-08T02:11:42.974Z,19.34
2019-06-08T02:14:15.453Z,19.30
2019-06-08T02:16:47.731Z,19.32
2019-06-08T02:19:20.090Z,19.38
2019-06-08T02:21:52.871Z,19.45
2019-06-08T02:24:25.145Z,19.53
2019-06-08T02:26:57.313Z,19.52
2019-06-08T02:29:29.891Z,19.56
2019-06-08T02:32:02.483Z,19.67
2019-06-08T02:34:36.081Z,19.67
2019-06-08T02:37:12.134Z,19.57
2019-06-08T02:39:44.594Z,19.55
2019-06-08T02:42:17.071Z,19.54
2019-06-08T02:44:49.349Z,19.57
2019-06-08T02:47:21.713Z,19.53
2019-06-08T02:49:54.190Z,19.59
2019-06-08T02:52:26.763Z,19.67
2019-06-08T02:55:00.149Z,19.74
2019-06-08T02:57:35.582Z,20.00
2019-06-08T03:00:10.383Z,19.93
2019-06-08T03:02:44.999Z,20.08
2019-06-08T03:05:17.738Z,20.04
2019-06-08T03:07:51.950Z,20.53
2019-06-08T03:10:24.119Z,20.91
2019-06-08T03:12:56.999Z,21.01
2019-06-08T03:15:33.894Z,21.26
2019-06-08T03:18:06.078Z,21.37
2019-06-08T03:20:40.001Z,21.46
2019-06-08T03:23:12.238Z,21.85
2019-06-08T03:25:52.592Z,21.88
2019-06-08T03:28:18.811Z,22.16
2019-06-08T03:30:54.205Z,22.41
2019-06-08T03:33:25.499Z,22.29
2019-06-08T03:35:58.728Z,22.23
2019-06-08T03:38:31.163Z,22.82
2019-06-08T03:41:03.639Z,23.02
2019-06-08T03:43:37.606Z,23.01
2019-06-08T03:46:10.020Z,22.73
2019-06-08T03:48:44.490Z,23.13
2019-06-08T03:51:16.712Z,22.92
2019-06-08T03:53:49.722Z,23.02
2019-06-08T03:56:22.144Z,22.64
2019-06-08T03:58:54.543Z,22.85
2019-06-08T04:01:27.891Z,22.86
2019-06-08T04:04:00.780Z,22.93
2019-06-08T04:06:33.094Z,22.95
2019-06-08T04:09:07.456Z,23.01
2019-06-08T04:11:42.449Z,23.03
2019-06-08T04:14:15.005Z,22.65
2019-06-08T04:16:47.510Z,23.00
2019-06-08T04:19:20.180Z,23.04
2019-06-08T04:21:52.658Z,22.88
2019-06-08T04:24:25.024Z,22.85
2019-06-08T04:26:57.082Z,22.60
2019-06-08T04:29:29.854Z,22.75
2019-06-08T04:32:02.307Z,23.26
2019-06-08T04:34:34.833Z,23.05
2019-06-08T04:37:07.396Z,23.07
2019-06-08T04:39:40.233Z,23.34
2019-06-08T04:42:12.854Z,23.03
2019-06-08T04:44:46.998Z,23.16
2019-06-08T04:47:19.234Z,23.11
2019-06-08T04:49:51.618Z,23.36
2019-06-08T04:52:23.990Z,23.56
2019-06-08T04:54:56.563Z,23.47
2019-06-08T04:57:28.841Z,23.64
2019-06-08T05:00:11.179Z,23.83
2019-06-08T05:02:41.531Z,23.90
2019-06-08T05:05:14.346Z,23.75
2019-06-08T05:07:48.530Z,24.20
2019-06-08T05:10:20.414Z,24.15
2019-06-08T05:12:52.987Z,23.90
2019-06-08T05:15:25.470Z,23.78
2019-06-08T05:17:58.038Z,24.07
2019-06-08T05:20:38.868Z,24.23
2019-06-08T05:23:05.446Z,24.19
2019-06-08T05:25:38.995Z,24.02
2019-06-08T05:28:11.421Z,24.02
2019-06-08T05:30:43.789Z,24.31
2019-06-08T05:33:16.163Z,24.56
2019-06-08T05:35:49.809Z,24.55
2019-06-08T05:38:22.034Z,24.91
2019-06-08T05:40:54.503Z,25.10
2019-06-08T05:43:27.199Z,24.87
2019-06-08T05:45:59.458Z,25.41
2019-06-08T05:48:32.034Z,25.29
2019-06-08T05:51:04.832Z,25.49
2019-06-08T05:53:37.416Z,25.49
2019-06-08T05:56:09.763Z,25.53
2019-06-08T05:58:42.031Z,25.70
2019-06-08T06:01:16.349Z,25.66
2019-06-08T06:03:48.848Z,26.09
2019-06-08T06:06:21.201Z,26.17
2019-06-08T06:08:53.374Z,25.92
2019-06-08T06:11:25.733Z,26.00
2019-06-08T06:13:58.212Z,26.38
2019-06-08T06:16:30.685Z,26.30
2019-06-08T06:19:03.206Z,26.18
2019-06-08T06:21:37.071Z,25.93
2019-06-08T06:24:09.545Z,26.30
2019-06-08T06:26:43.237Z,26.60
2019-06-08T06:29:15.365Z,25.89
2019-06-08T06:31:47.887Z,25.63
2019-06-08T06:34:20.258Z,25.76
2019-06-08T06:36:52.630Z,25.83
2019-06-08T06:39:25.921Z,25.93
2019-06-08T06:41:59.931Z,26.17
2019-06-08T06:44:35.279Z,26.22
2019-06-08T06:47:07.750Z,26.35
2019-06-08T06:49:40.120Z,26.17
2019-06-08T06:52:12.386Z,26.34
2019-06-08T06:54:44.947Z,26.40
2019-06-08T06:57:17.233Z,26.28
2019-06-08T06:59:49.602Z,26.03
2019-06-08T07:02:22.786Z,26.59
2019-06-08T07:04:55.070Z,26.53
2019-06-08T07:07:27.344Z,26.26
2019-06-08T07:09:59.711Z,26.45
2019-06-08T07:12:31.874Z,26.42
2019-06-08T07:15:05.373Z,26.56
2019-06-08T07:17:37.643Z,26.88
2019-06-08T07:20:10.323Z,26.94
2019-06-08T07:22:42.494Z,26.58
2019-06-08T07:25:14.653Z,26.70
2019-06-08T07:27:48.376Z,27.07
2019-06-08T07:30:20.949Z,26.93
2019-06-08T07:32:53.207Z,27.11
2019-06-08T07:35:25.675Z,26.89
2019-06-08T07:37:58.047Z,26.99
2019-06-08T07:40:30.631Z,27.10
2019-06-08T07:43:03.004Z,27.22
2019-06-08T07:45:35.778Z,27.16
2019-06-08T07:48:07.946Z,27.43
2019-06-08T07:50:40.630Z,27.44
2019-06-08T07:53:13.231Z,27.28
2019-06-08T07:55:45.658Z,27.40
2019-06-08T07:58:18.064Z,27.48
2019-06-08T08:00:52.545Z,27.72
2019-06-08T08:03:26.069Z,27.36
2019-06-08T08:05:58.638Z,27.61
2019-06-08T08:08:31.015Z,27.60
2019-06-08T08:11:03.491Z,27.70
2019-06-08T08:13:35.978Z,27.59
2019-06-08T08:16:08.134Z,27.54
2019-06-08T08:18:40.504Z,27.98
2019-06-08T08:21:22.344Z,27.99
2019-06-08T08:23:47.886Z,27.71
2019-06-08T08:26:20.692Z,27.83
2019-06-08T08:28:54.726Z,27.90
2019-06-08T08:31:27.839Z,28.05
2019-06-08T08:34:05.779Z,28.20
2019-06-08T08:36:34.279Z,28.16
2019-06-08T08:39:08.717Z,27.80
2019-06-08T08:41:40.859Z,28.00
2019-06-08T08:44:13.134Z,27.97
2019-06-08T08:46:45.506Z,28.06
2019-06-08T08:49:18.357Z,28.35
2019-06-08T08:51:52.144Z,28.27
2019-06-08T08:54:24.889Z,28.20
2019-06-08T08:57:01.652Z,28.34
2019-06-08T08:59:31.052Z,28.47
2019-06-08T09:02:04.277Z,28.10
2019-06-08T09:04:38.092Z,28.04
2019-06-08T09:07:13.091Z,28.26
2019-06-08T09:09:48.058Z,28.38
2019-06-08T09:12:19.875Z,28.65
2019-06-08T09:14:54.239Z,28.64
2019-06-08T09:17:27.994Z,28.63
2019-06-08T09:20:03.307Z,28.63
2019-06-08T09:22:47.141Z,28.52
2019-06-08T09:25:08.870Z,28.64
2019-06-08T09:27:41.074Z,28.51
2019-06-08T09:30:13.850Z,28.48
2019-06-08T09:32:47.832Z,28.46
2019-06-08T09:35:21.260Z,28.82
2019-06-08T09:37:54.812Z,28.66
2019-06-08T09:40:31.939Z,28.71
2019-06-08T09:43:06.102Z,28.79
2019-06-08T09:45:38.116Z,28.33
2019-06-08T09:48:10.398Z,28.50
2019-06-08T09:50:42.962Z,28.89
2019-06-08T09:53:26.875Z,28.79
2019-06-08T09:55:49.962Z,28.84
2019-06-08T09:58:22.434Z,28.86
2019-06-08T10:00:56.185Z,28.73
2019-06-08T10:03:30.813Z,28.70
2019-06-08T10:06:08.320Z,29.00
2019-06-08T10:08:38.755Z,29.09
2019-06-08T10:11:11.265Z,29.05
2019-06-08T10:13:43.964Z,29.16
2019-06-08T10:16:18.537Z,28.94
2019-06-08T10:18:51.494Z,29.22
2019-06-08T10:21:23.814Z,28.92
2019-06-08T10:23:59.487Z,29.05
2019-06-08T10:26:29.997Z,29.06
2019-06-08T10:29:04.965Z,28.88
2019-06-08T10:31:42.068Z,28.92
2019-06-08T10:34:11.562Z,29.46
2019-06-08T10:36:44.089Z,29.32
2019-06-08T10:39:16.359Z,29.38
2019-06-08T10:41:51.473Z,29.25
2019-06-08T10:44:22.638Z,29.58
2019-06-08T10:46:54.804Z,29.52
2019-06-08T10:49:28.692Z,29.34
2019-06-08T10:52:03.498Z,29.61
2019-06-08T10:54:37.685Z,29.50
2019-06-08T10:57:09.947Z,29.77
2019-06-08T10:59:42.122Z,29.99
2019-06-08T11:02:14.912Z,29.72
2019-06-08T11:04:48.409Z,29.66
2019-06-08T11:07:20.769Z,29.54
2019-06-08T11:09:53.015Z,29.31
2019-06-08T11:12:28.153Z,29.49
2019-06-08T11:15:01.610Z,29.55
2019-06-08T11:17:34.642Z,29.68
2019-06-08T11:20:11.805Z,29.83
2019-06-08T11:22:42.447Z,29.85
2019-06-08T11:25:16.646Z,29.95
2019-06-08T11:27:48.730Z,29.84
2019-06-08T11:30:26.814Z,29.74
2019-06-08T11:32:57.671Z,29.56
2019-06-08T11:35:30.245Z,29.75
2019-06-08T11:38:03.861Z,30.06
2019-06-08T11:40:37.900Z,30.33
2019-06-08T11:43:11.580Z,30.20
2019-06-08T11:45:43.938Z,30.47
2019-06-08T11:48:18.310Z,30.56
2019-06-08T11:50:50.730Z,30.19
2019-06-08T11:53:23.712Z,30.13
2019-06-08T11:55:58.546Z,30.24
2019-06-08T11:58:33.995Z,30.19
2019-06-08T12:01:11.612Z,30.09
2019-06-08T12:03:42.457Z,30.08
2019-06-08T12:06:14.796Z,30.19
2019-06-08T12:08:47.352Z,30.26
2019-06-08T12:11:23.006Z,30.06
2019-06-08T12:13:53.852Z,29.83
2019-06-08T12:16:28.093Z,29.66
2019-06-08T12:18:59.824Z,29.56
2019-06-08T12:21:32.089Z,29.36
2019-06-08T12:24:05.998Z,29.29
2019-06-08T12:26:38.472Z,29.41
2019-06-08T12:29:13.473Z,29.59
2019-06-08T12:31:45.980Z,29.43
2019-06-08T12:34:18.594Z,29.59
2019-06-08T12:36:51.040Z,29.91
2019-06-08T12:39:23.403Z,29.82
2019-06-08T12:41:58.205Z,29.97
2019-06-08T12:44:29.686Z,30.22
2019-06-08T12:47:01.958Z,30.22
2019-06-08T12:49:34.537Z,30.47
2019-06-08T12:52:08.650Z,30.17
2019-06-08T12:54:56.200Z,30.30
2019-06-08T12:57:17.572Z,30.36
2019-06-08T12:59:50.063Z,30.20
2019-06-08T13:02:24.358Z,30.07
2019-06-08T13:04:57.563Z,29.94
2019-06-08T13:07:29.986Z,29.73
2019-06-08T13:10:02.517Z,29.70
2019-06-08T13:12:34.988Z,29.63
2019-06-08T13:15:10.053Z,29.61
2019-06-08T13:17:43.116Z,29.59
2019-06-08T13:20:21.956Z,29.80
2019-06-08T13:22:52.875Z,29.90
2019-06-08T13:25:37.465Z,29.77
2019-06-08T13:27:59.602Z,29.67
2019-06-08T13:30:32.487Z,29.70
2019-06-08T13:33:04.819Z,29.63
2019-06-08T13:35:39.469Z,29.67
2019-06-08T13:38:12.629Z,29.66
2019-06-08T13:40:45.012Z,29.62
2019-06-08T13:43:19.807Z,29.67
2019-06-08T13:45:51.779Z,29.70
2019-06-08T13:48:24.476Z,29.93
2019-06-08T13:50:59.040Z,29.65
2019-06-08T13:53:31.950Z,29.34
2019-06-08T13:56:04.461Z,29.28
2019-06-08T13:58:38.209Z,29.21
2019-06-08T14:01:11.053Z,29.14
2019-06-08T14:03:44.959Z,29.11
2019-06-08T14:06:19.055Z,29.12
2019-06-08T14:08:51.135Z,29.06
2019-06-08T14:11:25.048Z,29.16
2019-06-08T14:14:00.829Z,29.17
2019-06-08T14:16:31.592Z,29.22
2019-06-08T14:19:04.406Z,29.26
2019-06-08T14:21:41.108Z,29.46
2019-06-08T14:24:11.611Z,29.68
2019-06-08T14:26:44.902Z,29.52
2019-06-08T14:29:19.662Z,29.89
2019-06-08T14:31:51.590Z,29.71
2019-06-08T14:34:24.836Z,29.47
2019-06-08T14:36:59.408Z,29.23
2019-06-08T14:39:31.990Z,29.27
2019-06-08T14:42:04.772Z,29.18
2019-06-08T14:44:38.039Z,28.98
2019-06-08T14:47:13.889Z,28.93
2019-06-08T14:49:48.675Z,28.85
2019-06-08T14:52:22.234Z,28.66
2019-06-08T14:54:54.922Z,28.64
2019-06-08T14:57:28.233Z,28.61
2019-06-08T15:00:08.331Z,28.64
2019-06-08T15:02:37.936Z,28.58
2019-06-08T15:05:10.249Z,28.54
2019-06-08T15:07:42.721Z,28.53
2019-06-08T15:10:18.045Z,28.65
2019-06-08T15:12:49.510Z,28.59
2019-06-08T15:15:21.884Z,28.67
2019-06-08T15:17:55.177Z,28.67
2019-06-08T15:20:28.589Z,28.78
2019-06-08T15:23:00.840Z,28.95
2019-06-08T15:25:33.216Z,28.86
2019-06-08T15:28:08.042Z,28.84
2019-06-08T15:30:39.902Z,28.68
2019-06-08T15:33:12.276Z,28.75
2019-06-08T15:35:44.546Z,28.78
2019-06-08T15:38:17.547Z,28.74
2019-06-08T15:40:51.135Z,28.83
2019-06-08T15:43:23.887Z,28.86
2019-06-08T15:45:58.936Z,28.85
2019-06-08T15:48:31.985Z,28.89
2019-06-08T15:51:03.588Z,28.86
2019-06-08T15:53:37.862Z,28.91
2019-06-08T15:56:10.385Z,28.89
2019-06-08T15:58:42.855Z,28.70
2019-06-08T16:01:15.225Z,28.70
2019-06-08T16:03:47.904Z,28.64
2019-06-08T16:06:20.286Z,28.59
2019-06-08T16:08:52.853Z,28.52
2019-06-08T16:11:26.070Z,28.57
2019-06-08T16:13:58.314Z,28.54
2019-06-08T16:16:31.132Z,28.55
2019-06-08T16:19:03.573Z,28.52
2019-06-08T16:21:36.132Z,28.34
2019-06-08T16:24:08.420Z,28.38
2019-06-08T16:26:52.739Z,28.12
2019-06-08T16:29:14.696Z,27.94
2019-06-08T16:31:47.069Z,27.82
2019-06-08T16:34:19.339Z,27.71
2019-06-08T16:36:52.090Z,27.64
2019-06-08T16:39:24.693Z,27.55
2019-06-08T16:41:57.172Z,27.46
2019-06-08T16:44:30.010Z,27.39
2019-06-08T16:47:02.629Z,27.28
2019-06-08T16:49:35.418Z,27.21
2019-06-08T16:52:08.709Z,27.14
2019-06-08T16:54:41.284Z,27.08
2019-06-08T16:57:13.657Z,26.95
2019-06-08T16:59:45.824Z,26.87
2019-06-08T17:02:18.518Z,26.79
2019-06-08T17:04:50.811Z,26.78
2019-06-08T17:07:23.040Z,26.75
2019-06-08T17:09:55.246Z,26.74
2019-06-08T17:12:27.537Z,26.79
2019-06-08T17:14:59.744Z,26.81
2019-06-08T17:17:32.144Z,26.73
2019-06-08T17:20:05.825Z,26.67
2019-06-08T17:22:39.111Z,26.53
2019-06-08T17:25:12.112Z,26.45
2019-06-08T17:27:44.372Z,26.36
2019-06-08T17:30:16.857Z,26.26
2019-06-08T17:32:49.014Z,26.17
2019-06-08T17:35:21.279Z,26.07
2019-06-08T17:37:53.450Z,25.89
2019-06-08T17:40:25.923Z,25.81
2019-06-08T17:43:01.575Z,25.67
2019-06-08T17:45:34.243Z,25.60
2019-06-08T17:48:06.723Z,25.57
2019-06-08T17:50:39.199Z,25.54
2019-06-08T17:53:12.188Z,25.47
2019-06-08T17:55:44.563Z,25.45
2019-06-08T17:58:20.941Z,25.41
2019-06-08T18:00:50.736Z,25.18
2019-06-08T18:03:23.361Z,25.06
2019-06-08T18:05:57.721Z,24.93
2019-06-08T18:08:30.105Z,24.88
2019-06-08T18:11:02.679Z,24.74
2019-06-08T18:13:36.877Z,24.63
2019-06-08T18:16:08.967Z,24.53
2019-06-08T18:18:42.471Z,24.41
2019-06-08T18:21:17.695Z,24.38
2019-06-08T18:23:49.558Z,24.21
2019-06-08T18:26:21.787Z,24.18
2019-06-08T18:28:55.110Z,24.14
2019-06-08T18:31:27.729Z,24.14
2019-06-08T18:34:02.079Z,24.05
2019-06-08T18:36:35.064Z,23.97
2019-06-08T18:39:08.703Z,23.95
2019-06-08T18:41:42.607Z,23.86
2019-06-08T18:44:17.396Z,23.79
2019-06-08T18:46:50.425Z,23.74
2019-06-08T18:49:25.689Z,23.72
2019-06-08T18:51:58.220Z,23.65
2019-06-08T18:54:32.154Z,23.60
2019-06-08T18:57:06.127Z,23.28
2019-06-08T18:59:43.145Z,23.20
2019-06-08T19:02:12.949Z,23.19
2019-06-08T19:04:47.730Z,23.09
2019-06-08T19:07:19.650Z,23.07
2019-06-08T19:09:51.920Z,23.08
2019-06-08T19:12:24.287Z,23.01
2019-06-08T19:14:58.598Z,22.93
2019-06-08T19:17:30.869Z,22.78
2019-06-08T19:20:04.166Z,22.74
2019-06-08T19:22:40.949Z,22.72
2019-06-08T19:25:12.104Z,22.60
2019-06-08T19:27:47.514Z,22.38
2019-06-08T19:30:20.342Z,22.32
2019-06-08T19:32:52.632Z,22.19
2019-06-08T19:35:27.215Z,22.08
2019-06-08T19:37:59.062Z,21.92
2019-06-08T19:40:31.433Z,21.72
2019-06-08T19:43:03.707Z,21.75
2019-06-08T19:45:38.642Z,21.72
2019-06-08T19:48:10.185Z,21.49
2019-06-08T19:50:42.867Z,21.55
2019-06-08T19:53:18.156Z,21.56
2019-06-08T19:55:53.937Z,21.49
2019-06-08T19:58:24.078Z,21.54
2019-06-08T20:00:58.816Z,21.53
2019-06-08T20:03:31.686Z,21.47
2019-06-08T20:06:04.175Z,21.57
2019-06-08T20:08:37.476Z,21.50
2019-06-08T20:11:10.036Z,21.40
2019-06-08T20:13:43.295Z,21.39
2019-06-08T20:16:17.418Z,21.42
2019-06-08T20:18:51.691Z,21.39
2019-06-08T20:21:24.544Z,21.27
2019-06-08T20:23:58.526Z,21.33
2019-06-08T20:26:30.718Z,21.27
2019-06-08T20:29:13.678Z,21.30
2019-06-08T20:31:38.987Z,21.27
2019-06-08T20:34:11.322Z,21.20
2019-06-08T20:36:44.805Z,21.17
2019-06-08T20:39:18.071Z,21.19
2019-06-08T20:41:51.894Z,21.13
2019-06-08T20:44:24.284Z,21.11
2019-06-08T20:46:57.718Z,21.16
2019-06-08T20:49:30.051Z,21.07
2019-06-08T20:52:02.216Z,21.05
2019-06-08T20:54:36.834Z,21.00
2019-06-08T20:57:08.810Z,20.97
2019-06-08T20:59:40.951Z,21.02
2019-06-08T21:02:13.857Z,21.03
2019-06-08T21:04:49.134Z,20.97
2019-06-08T21:07:19.826Z,20.95
2019-06-08T21:09:53.707Z,20.95
2019-06-08T21:12:28.329Z,21.00
2019-06-08T21:15:00.630Z,21.04
2019-06-08T21:17:32.902Z,21.06
2019-06-08T21:20:08.455Z,21.13
2019-06-08T21:22:41.024Z,21.11
2019-06-08T21:25:13.594Z,21.07
2019-06-08T21:27:48.100Z,21.14
2019-06-08T21:30:24.305Z,21.14
2019-06-08T21:32:55.869Z,21.21
2019-06-08T21:35:27.492Z,21.27
2019-06-08T21:38:01.293Z,21.25
2019-06-08T21:40:33.675Z,21.33
2019-06-08T21:43:08.135Z,21.31
2019-06-08T21:45:40.665Z,21.38
2019-06-08T21:48:13.145Z,21.37
2019-06-08T21:50:47.647Z,21.31
2019-06-08T21:53:19.975Z,21.28
2019-06-08T21:55:52.202Z,21.33
2019-06-08T21:58:24.673Z,21.32
2019-06-08T22:00:59.167Z,21.30
2019-06-08T22:03:32.206Z,21.32
2019-06-08T22:06:04.553Z,21.33
2019-06-08T22:08:37.540Z,21.31
2019-06-08T22:11:09.917Z,21.42
2019-06-08T22:13:42.190Z,21.28
2019-06-08T22:16:14.841Z,21.35
2019-06-08T22:18:47.593Z,21.30
2019-06-08T22:21:19.909Z,21.30
2019-06-08T22:23:53.318Z,21.23
2019-06-08T22:26:28.051Z,21.17
2019-06-08T22:29:01.187Z,21.08
2019-06-08T22:31:34.517Z,21.07
2019-06-08T22:34:06.893Z,20.99
2019-06-08T22:36:38.955Z,20.93
2019-06-08T22:39:11.429Z,20.83
2019-06-08T22:41:44.113Z,20.79
2019-06-08T22:44:17.690Z,20.67
2019-06-08T22:46:49.982Z,20.58
2019-06-08T22:49:22.245Z,20.59
2019-06-08T22:51:55.714Z,20.68
2019-06-08T22:54:29.143Z,20.55
2019-06-08T22:57:03.159Z,20.24
2019-06-08T22:59:37.222Z,19.99
2019-06-08T23:02:09.743Z,20.07
2019-06-08T23:04:42.323Z,19.73
2019-06-08T23:07:26.656Z,19.84
2019-06-08T23:09:48.491Z,19.39
2019-06-08T23:12:20.969Z,19.58
2019-06-08T23:14:54.293Z,19.46
2019-06-08T23:17:28.057Z,19.30
2019-06-08T23:20:01.620Z,19.00
2019-06-08T23:22:34.448Z,18.95
2019-06-08T23:25:09.332Z,18.98
2019-06-08T23:27:40.834Z,18.95
2019-06-08T23:30:13.508Z,19.08
2019-06-08T23:32:47.946Z,19.22
2019-06-08T23:35:19.995Z,19.02
2019-06-08T23:37:53.194Z,19.10
2019-06-08T23:40:27.253Z,19.22
2019-06-08T23:43:01.256Z,19.39
2019-06-08T23:45:33.575Z,19.46
2019-06-08T23:48:06.691Z,19.53
2019-06-08T23:50:39.042Z,19.58
2019-06-08T23:53:11.725Z,19.54
2019-06-08T23:55:44.188Z,19.72
2019-06-08T23:58:17.546Z,19.69
